Last 24 Hours

Squaw-Belmont 8000'

Hourly Data | America/Los_Angeles
as of 7/18/19 11:24 PM PDT
Date & Time Temp (°F) RH (%) Dew Pt (°F) Wet Bulb (°F) Wind Dir (°) Wind Spd (mph) Wind Gust (mph) WindChill (°F) Latest Rain (In) Daily Min Temp (°F) Daily Max Temp (°F) Daily Rain (In)
7/18/19 - 2300 55.5 56 40.1 46.9 SW | 219 9.8 22.6 56.3 0.00 53.0 65.5 0.00
7/18/19 - 2200 57.0 48 37.3 46.2 SW | 222 12.2 23.0 55.0 0.00 53.0 65.5 0.00
7/18/19 - 2100 54.5 73 46.2 49.5 WSW | 242 5.5 12.7 54.9 0.00 53.0 65.5 0.00
7/18/19 - 2000 55.9 69 45.8 49.8 WSW | 242 7.0 15.4 58.1 0.00 53.0 65.5 0.00
7/18/19 - 1900 59.2 58 44.6 50.6 SW | 229 10.8 19.8 60.7 0.00 53.0 65.5 0.00
7/18/19 - 1800 61.8 51 43.3 50.9 SW | 229 10.6 20.7 62.2 0.00 53.0 65.5 0.00
7/18/19 - 1700 62.9 44 40.8 50.2 SW | 226 9.4 24.2 63.4 0.00 53.0 65.5 0.00
7/18/19 - 1600 63.4 44 41.2 50.5 SW | 233 8.8 19.9 64.1 0.00 53.0 65.5 0.00
7/18/19 - 1500 64.4 37 37.8 49.5 SW | 232 8.4 20.1 64.3 0.00 53.0 65.5 0.00
7/18/19 - 1400 63.9 38 37.7 49.2 SW | 231 8.2 18.2 64.0 0.00 53.0 65.5 0.00
7/18/19 - 1300 63.6 38 37.4 49.0 SW | 222 6.8 17.7 63.7 0.00 53.0 65.5 0.00
7/18/19 - 1200 62.6 34 34.2 47.3 SW | 216 7.2 17.2 62.2 0.00 53.0 63.8 0.00
7/18/19 - 1100 61.1 43 38.4 48.4 SSW | 210 7.6 15.8 61.2 0.00 53.0 62.6 0.00
7/18/19 - 1000 60.3 38 34.9 46.6 SSW | 205 10.0 20.7 59.1 0.00 53.0 60.4 0.00
7/18/19 - 0900 58.8 49 39.6 48.0 SSW | 204 9.4 18.1 58.8 0.00 53.0 59.5 0.00
7/18/19 - 0800 58.8 49 39.7 48.1 SSW | 204 11.6 20.6 56.8 0.00 53.0 59.0 0.00
7/18/19 - 0700 55.0 57 40.0 46.6 SSW | 211 12.2 20.3 53.7 0.00 53.0 56.7 0.00
7/18/19 - 0600 53.3 66 42.1 46.9 SW | 218 12.4 21.0 50.3 0.00 53.0 56.7 0.00
7/18/19 - 0500 53.4 69 43.4 47.6 SSW | 213 12.1 20.3 52.5 0.00 53.4 56.7 0.00
7/18/19 - 0400 54.3 63 41.9 47.2 SSW | 206 10.6 22.1 54.8 0.00 54.2 56.7 0.00
7/18/19 - 0300 55.0 58 40.8 47.0 SSW | 205 12.6 21.7 55.4 0.00 55.0 56.7 0.00
7/18/19 - 0200 55.6 55 39.7 46.7 SSW | 206 11.7 22.8 55.8 0.00 55.2 56.7 0.00
7/18/19 - 0100 56.4 49 37.2 46.0 SSW | 197 8.0 16.9 56.3 0.00 55.9 56.7 0.00
7/18/19 - 0000 56.4 49 37.6 46.1 SSW | 202 6.8 22.2 56.5 0.00 48.3 70.1 0.00
7/17/19 - 2300 56.7 46 36.3 45.7 SW | 223 7.6 18.3 56.7 0.00 48.3 70.1 0.00
Max 64.4 73 46.2 50.9 - 12.6 24.2 64.3 0.00 55.9 70.1 0.00
Avg 58.4 51 39.9 48.0 - 9.5 19.7 58.3 0.00 - - -
Min 53.3 34 34.2 45.7 - 5.5 12.7 50.3 0.00 48.3 56.7 0.00
Total - - - - - - - - 0.00 - - -